sensor_id;sensor_type;location;lat;lon;timestamp;temperature;humidity
13472;DHT22;6808;49.444;11.034;2022-11-20T00:01:49;1.50;99.90
13472;DHT22;6808;49.444;11.034;2022-11-20T00:04:14;1.60;99.90
13472;DHT22;6808;49.444;11.034;2022-11-20T00:06:40;1.50;99.90
13472;DHT22;6808;49.444;11.034;2022-11-20T00:09:05;1.50;99.90
13472;DHT22;6808;49.444;11.034;2022-11-20T00:11:32;1.50;99.90
13472;DHT22;6808;49.444;11.034;2022-11-20T00:14:00;1.50;99.90
13472;DHT22;6808;49.444;11.034;2022-11-20T00:16:29;1.50;99.90
13472;DHT22;6808;49.444;11.034;2022-11-20T00:18:55;1.60;99.90
13472;DHT22;6808;49.444;11.034;2022-11-20T00:21:23;1.60;99.90
13472;DHT22;6808;49.444;11.034;2022-11-20T00:23:50;1.60;99.90
13472;DHT22;6808;49.444;11.034;2022-11-20T00:26:17;1.60;99.90
13472;DHT22;6808;49.444;11.034;2022-11-20T00:28:48;1.60;99.90
13472;DHT22;6808;49.444;11.034;2022-11-20T00:31:15;1.50;99.90
13472;DHT22;6808;49.444;11.034;2022-11-20T00:33:42;1.50;99.90
13472;DHT22;6808;49.444;11.034;2022-11-20T00:36:10;1.50;99.90
13472;DHT22;6808;49.444;11.034;2022-11-20T00:38:36;1.50;99.90
13472;DHT22;6808;49.444;11.034;2022-11-20T00:41:05;1.60;99.90
13472;DHT22;6808;49.444;11.034;2022-11-20T00:43:31;1.60;99.90
13472;DHT22;6808;49.444;11.034;2022-11-20T00:46:08;1.60;99.90
13472;DHT22;6808;49.444;11.034;2022-11-20T00:48:34;1.50;99.90
13472;DHT22;6808;49.444;11.034;2022-11-20T00:51:00;1.50;99.90
13472;DHT22;6808;49.444;11.034;2022-11-20T00:53:26;1.60;99.90
13472;DHT22;6808;49.444;11.034;2022-11-20T00:55:59;1.50;99.90
13472;DHT22;6808;49.444;11.034;2022-11-20T00:58:29;1.50;99.90
13472;DHT22;6808;49.444;11.034;2022-11-20T01:01:04;1.50;99.90
13472;DHT22;6808;49.444;11.034;2022-11-20T01:03:32;1.50;99.90
13472;DHT22;6808;49.444;11.034;2022-11-20T01:06:02;1.50;99.90
13472;DHT22;6808;49.444;11.034;2022-11-20T01:08:32;0.30;99.90
13472;DHT22;6808;49.444;11.034;2022-11-20T01:11:03;1.40;99.90
13472;DHT22;6808;49.444;11.034;2022-11-20T01:13:30;1.50;99.90
13472;DHT22;6808;49.444;11.034;2022-11-20T01:16:13;1.50;99.90
13472;DHT22;6808;49.444;11.034;2022-11-20T01:18:42;1.50;99.90
13472;DHT22;6808;49.444;11.034;2022-11-20T01:21:11;1.40;99.90
13472;DHT22;6808;49.444;11.034;2022-11-20T01:23:39;1.50;99.90
13472;DHT22;6808;49.444;11.034;2022-11-20T01:26:08;1.60;99.90
13472;DHT22;6808;49.444;11.034;2022-11-20T01:28:35;1.60;99.90
13472;DHT22;6808;49.444;11.034;2022-11-20T01:31:01;1.60;99.90
13472;DHT22;6808;49.444;11.034;2022-11-20T01:33:27;1.50;99.90
13472;DHT22;6808;49.444;11.034;2022-11-20T01:35:53;1.40;99.90
13472;DHT22;6808;49.444;11.034;2022-11-20T01:38:19;1.40;99.90
13472;DHT22;6808;49.444;11.034;2022-11-20T01:40:55;1.50;99.90
13472;DHT22;6808;49.444;11.034;2022-11-20T01:43:21;1.40;99.90
13472;DHT22;6808;49.444;11.034;2022-11-20T01:46:16;1.40;99.90
13472;DHT22;6808;49.444;11.034;2022-11-20T01:49:21;1.50;99.90
13472;DHT22;6808;49.444;11.034;2022-11-20T01:51:59;1.50;99.90
13472;DHT22;6808;49.444;11.034;2022-11-20T01:54:34;1.60;99.90
13472;DHT22;6808;49.444;11.034;2022-11-20T01:57:01;1.60;99.90
13472;DHT22;6808;49.444;11.034;2022-11-20T01:59:29;1.60;99.90
13472;DHT22;6808;49.444;11.034;2022-11-20T02:01:55;1.70;99.90
13472;DHT22;6808;49.444;11.034;2022-11-20T02:04:22;1.70;99.90
13472;DHT22;6808;49.444;11.034;2022-11-20T02:06:51;1.60;99.90
13472;DHT22;6808;49.444;11.034;2022-11-20T02:09:20;1.60;99.90
13472;DHT22;6808;49.444;11.034;2022-11-20T02:11:46;1.60;99.90
13472;DHT22;6808;49.444;11.034;2022-11-20T02:14:12;1.60;99.90
13472;DHT22;6808;49.444;11.034;2022-11-20T02:16:43;1.50;99.90
13472;DHT22;6808;49.444;11.034;2022-11-20T02:19:26;1.50;99.90
13472;DHT22;6808;49.444;11.034;2022-11-20T02:24:30;1.60;99.90
13472;DHT22;6808;49.444;11.034;2022-11-20T02:27:03;1.60;99.90
13472;DHT22;6808;49.444;11.034;2022-11-20T02:29:44;1.60;99.90
13472;DHT22;6808;49.444;11.034;2022-11-20T02:32:28;1.70;99.90
13472;DHT22;6808;49.444;11.034;2022-11-20T02:34:55;1.70;99.90
13472;DHT22;6808;49.444;11.034;2022-11-20T02:37:21;1.70;99.90
13472;DHT22;6808;49.444;11.034;2022-11-20T02:39:49;1.70;99.90
13472;DHT22;6808;49.444;11.034;2022-11-20T02:42:15;1.70;99.90
13472;DHT22;6808;49.444;11.034;2022-11-20T02:44:41;1.60;99.90
13472;DHT22;6808;49.444;11.034;2022-11-20T02:47:06;1.70;99.90
13472;DHT22;6808;49.444;11.034;2022-11-20T02:49:32;1.70;99.90
13472;DHT22;6808;49.444;11.034;2022-11-20T02:51:58;1.70;99.90
13472;DHT22;6808;49.444;11.034;2022-11-20T02:54:24;1.80;99.90
13472;DHT22;6808;49.444;11.034;2022-11-20T02:56:49;1.80;99.90
13472;DHT22;6808;49.444;11.034;2022-11-20T02:59:15;1.80;99.90
13472;DHT22;6808;49.444;11.034;2022-11-20T03:01:40;1.80;99.90
13472;DHT22;6808;49.444;11.034;2022-11-20T03:04:06;1.70;99.90
13472;DHT22;6808;49.444;11.034;2022-11-20T03:06:32;1.80;99.90
13472;DHT22;6808;49.444;11.034;2022-11-20T03:08:57;1.80;99.90
13472;DHT22;6808;49.444;11.034;2022-11-20T03:11:23;1.80;99.90
13472;DHT22;6808;49.444;11.034;2022-11-20T03:13:48;1.80;99.90
13472;DHT22;6808;49.444;11.034;2022-11-20T03:16:19;1.80;99.90
13472;DHT22;6808;49.444;11.034;2022-11-20T03:18:45;1.80;99.90
13472;DHT22;6808;49.444;11.034;2022-11-20T03:21:12;1.80;99.90
13472;DHT22;6808;49.444;11.034;2022-11-20T03:23:39;1.80;99.90
13472;DHT22;6808;49.444;11.034;2022-11-20T03:26:24;1.80;99.90
13472;DHT22;6808;49.444;11.034;2022-11-20T03:28:55;1.80;99.90
13472;DHT22;6808;49.444;11.034;2022-11-20T03:31:33;1.80;99.90
13472;DHT22;6808;49.444;11.034;2022-11-20T03:33:59;1.70;99.90
13472;DHT22;6808;49.444;11.034;2022-11-20T03:36:26;1.70;99.90
13472;DHT22;6808;49.444;11.034;2022-11-20T03:38:53;1.70;99.90
13472;DHT22;6808;49.444;11.034;2022-11-20T03:41:24;1.80;99.90
13472;DHT22;6808;49.444;11.034;2022-11-20T03:43:55;1.80;99.90
13472;DHT22;6808;49.444;11.034;2022-11-20T03:46:21;1.70;99.90
13472;DHT22;6808;49.444;11.034;2022-11-20T03:48:47;1.70;99.90
13472;DHT22;6808;49.444;11.034;2022-11-20T03:51:18;1.70;99.90
13472;DHT22;6808;49.444;11.034;2022-11-20T03:53:46;1.80;99.90
13472;DHT22;6808;49.444;11.034;2022-11-20T03:56:14;1.80;99.90
13472;DHT22;6808;49.444;11.034;2022-11-20T03:58:41;1.80;99.90
13472;DHT22;6808;49.444;11.034;2022-11-20T04:01:27;1.80;99.90
13472;DHT22;6808;49.444;11.034;2022-11-20T04:03:54;1.80;99.90
13472;DHT22;6808;49.444;11.034;2022-11-20T04:06:23;1.80;99.90
13472;DHT22;6808;49.444;11.034;2022-11-20T04:08:49;1.80;99.90
13472;DHT22;6808;49.444;11.034;2022-11-20T04:11:20;1.80;99.90
13472;DHT22;6808;49.444;11.034;2022-11-20T04:13:47;1.80;99.90
13472;DHT22;6808;49.444;11.034;2022-11-20T04:16:15;1.70;99.90
13472;DHT22;6808;49.444;11.034;2022-11-20T04:18:40;1.80;99.90
13472;DHT22;6808;49.444;11.034;2022-11-20T04:21:06;1.80;99.90
13472;DHT22;6808;49.444;11.034;2022-11-20T04:23:32;1.70;99.90
13472;DHT22;6808;49.444;11.034;2022-11-20T04:28:28;1.70;99.90
13472;DHT22;6808;49.444;11.034;2022-11-20T04:30:54;1.70;99.90
13472;DHT22;6808;49.444;11.034;2022-11-20T04:33:19;1.60;99.90
13472;DHT22;6808;49.444;11.034;2022-11-20T04:35:47;1.60;99.90
13472;DHT22;6808;49.444;11.034;2022-11-20T04:38:13;1.60;99.90
13472;DHT22;6808;49.444;11.034;2022-11-20T04:40:38;1.70;99.90
13472;DHT22;6808;49.444;11.034;2022-11-20T04:43:04;1.60;99.90
13472;DHT22;6808;49.444;11.034;2022-11-20T04:45:29;1.60;99.90
13472;DHT22;6808;49.444;11.034;2022-11-20T04:47:55;1.50;99.90
13472;DHT22;6808;49.444;11.034;2022-11-20T04:50:20;1.60;99.90
13472;DHT22;6808;49.444;11.034;2022-11-20T04:52:46;1.60;99.90
13472;DHT22;6808;49.444;11.034;2022-11-20T04:55:11;1.60;99.90
13472;DHT22;6808;49.444;11.034;2022-11-20T04:57:37;1.60;99.90
13472;DHT22;6808;49.444;11.034;2022-11-20T05:00:03;1.60;99.90
13472;DHT22;6808;49.444;11.034;2022-11-20T05:02:31;1.60;99.90
13472;DHT22;6808;49.444;11.034;2022-11-20T05:04:57;1.50;99.90
13472;DHT22;6808;49.444;11.034;2022-11-20T05:07:22;1.60;99.90
13472;DHT22;6808;49.444;11.034;2022-11-20T05:09:48;1.60;99.90
13472;DHT22;6808;49.444;11.034;2022-11-20T05:12:13;1.50;99.90
13472;DHT22;6808;49.444;11.034;2022-11-20T05:14:39;1.50;99.90
13472;DHT22;6808;49.444;11.034;2022-11-20T05:17:04;1.60;99.90
13472;DHT22;6808;49.444;11.034;2022-11-20T05:19:30;1.60;99.90
13472;DHT22;6808;49.444;11.034;2022-11-20T05:21:56;1.60;99.90
13472;DHT22;6808;49.444;11.034;2022-11-20T05:24:21;1.60;99.90
13472;DHT22;6808;49.444;11.034;2022-11-20T05:26:47;1.60;99.90
13472;DHT22;6808;49.444;11.034;2022-11-20T05:29:13;1.60;99.90
13472;DHT22;6808;49.444;11.034;2022-11-20T05:31:40;1.60;99.90
13472;DHT22;6808;49.444;11.034;2022-11-20T05:34:06;1.60;99.90
13472;DHT22;6808;49.444;11.034;2022-11-20T05:36:32;1.60;99.90
13472;DHT22;6808;49.444;11.034;2022-11-20T05:38:58;1.70;99.90
13472;DHT22;6808;49.444;11.034;2022-11-20T05:41:23;1.70;99.90
13472;DHT22;6808;49.444;11.034;2022-11-20T05:43:50;1.60;99.90
13472;DHT22;6808;49.444;11.034;2022-11-20T05:46:18;1.60;99.90
13472;DHT22;6808;49.444;11.034;2022-11-20T05:48:44;1.60;99.90
13472;DHT22;6808;49.444;11.034;2022-11-20T05:51:13;1.50;99.90
13472;DHT22;6808;49.444;11.034;2022-11-20T05:53:39;1.60;99.90
13472;DHT22;6808;49.444;11.034;2022-11-20T05:56:09;1.60;99.90
13472;DHT22;6808;49.444;11.034;2022-11-20T05:58:36;1.60;99.90
13472;DHT22;6808;49.444;11.034;2022-11-20T06:01:12;1.60;99.90
13472;DHT22;6808;49.444;11.034;2022-11-20T06:03:39;1.60;99.90
13472;DHT22;6808;49.444;11.034;2022-11-20T06:06:06;1.60;99.90
13472;DHT22;6808;49.444;11.034;2022-11-20T06:08:32;1.60;99.90
13472;DHT22;6808;49.444;11.034;2022-11-20T06:10:58;1.60;99.90
13472;DHT22;6808;49.444;11.034;2022-11-20T06:13:23;1.70;99.90
13472;DHT22;6808;49.444;11.034;2022-11-20T06:15:50;1.70;99.90
13472;DHT22;6808;49.444;11.034;2022-11-20T06:18:15;1.70;99.90
13472;DHT22;6808;49.444;11.034;2022-11-20T06:20:41;1.70;99.90
13472;DHT22;6808;49.444;11.034;2022-11-20T06:23:07;1.70;99.90
13472;DHT22;6808;49.444;11.034;2022-11-20T06:25:32;1.80;99.90
13472;DHT22;6808;49.444;11.034;2022-11-20T06:27:58;1.70;99.90
13472;DHT22;6808;49.444;11.034;2022-11-20T06:30:23;1.70;99.90
13472;DHT22;6808;49.444;11.034;2022-11-20T06:32:49;1.70;99.90
13472;DHT22;6808;49.444;11.034;2022-11-20T06:35:14;1.70;99.90
13472;DHT22;6808;49.444;11.034;2022-11-20T06:37:40;1.70;99.90
13472;DHT22;6808;49.444;11.034;2022-11-20T06:40:06;1.70;99.90
13472;DHT22;6808;49.444;11.034;2022-11-20T06:42:32;1.70;99.90
13472;DHT22;6808;49.444;11.034;2022-11-20T06:44:57;1.70;99.90
13472;DHT22;6808;49.444;11.034;2022-11-20T06:47:23;1.80;99.90
13472;DHT22;6808;49.444;11.034;2022-11-20T06:49:48;1.80;99.90
13472;DHT22;6808;49.444;11.034;2022-11-20T06:52:14;1.70;99.90
13472;DHT22;6808;49.444;11.034;2022-11-20T06:54:40;1.80;99.90
13472;DHT22;6808;49.444;11.034;2022-11-20T06:57:05;1.80;99.90
13472;DHT22;6808;49.444;11.034;2022-11-20T06:59:31;1.80;99.90
13472;DHT22;6808;49.444;11.034;2022-11-20T07:01:56;1.80;99.90
13472;DHT22;6808;49.444;11.034;2022-11-20T07:04:22;1.80;99.90
13472;DHT22;6808;49.444;11.034;2022-11-20T07:06:48;1.80;99.90
13472;DHT22;6808;49.444;11.034;2022-11-20T07:09:13;1.80;99.90
13472;DHT22;6808;49.444;11.034;2022-11-20T07:11:39;1.80;99.90
13472;DHT22;6808;49.444;11.034;2022-11-20T07:14:04;1.80;99.90
13472;DHT22;6808;49.444;11.034;2022-11-20T07:16:31;1.80;99.90
13472;DHT22;6808;49.444;11.034;2022-11-20T07:18:57;1.80;99.90
13472;DHT22;6808;49.444;11.034;2022-11-20T07:21:22;1.80;99.90
13472;DHT22;6808;49.444;11.034;2022-11-20T07:23:48;1.80;99.90
13472;DHT22;6808;49.444;11.034;2022-11-20T07:26:13;1.80;99.90
13472;DHT22;6808;49.444;11.034;2022-11-20T07:28:39;1.80;99.90
13472;DHT22;6808;49.444;11.034;2022-11-20T07:31:05;1.80;99.90
13472;DHT22;6808;49.444;11.034;2022-11-20T07:33:32;1.90;99.90
13472;DHT22;6808;49.444;11.034;2022-11-20T07:36:01;1.90;99.90
13472;DHT22;6808;49.444;11.034;2022-11-20T07:38:27;1.90;99.90
13472;DHT22;6808;49.444;11.034;2022-11-20T07:40:59;1.90;99.90
13472;DHT22;6808;49.444;11.034;2022-11-20T07:43:26;1.90;99.90
13472;DHT22;6808;49.444;11.034;2022-11-20T07:45:55;1.90;99.90
13472;DHT22;6808;49.444;11.034;2022-11-20T07:48:21;1.90;99.90
13472;DHT22;6808;49.444;11.034;2022-11-20T07:50:47;1.90;99.90
13472;DHT22;6808;49.444;11.034;2022-11-20T07:53:12;1.90;99.90
13472;DHT22;6808;49.444;11.034;2022-11-20T07:55:39;2.00;99.90
13472;DHT22;6808;49.444;11.034;2022-11-20T07:58:05;2.30;99.90
13472;DHT22;6808;49.444;11.034;2022-11-20T08:00:30;2.00;99.90
13472;DHT22;6808;49.444;11.034;2022-11-20T08:02:56;2.00;99.90
13472;DHT22;6808;49.444;11.034;2022-11-20T08:05:21;2.00;99.90
13472;DHT22;6808;49.444;11.034;2022-11-20T08:07:47;2.00;99.90
13472;DHT22;6808;49.444;11.034;2022-11-20T08:10:14;2.00;99.90
13472;DHT22;6808;49.444;11.034;2022-11-20T08:12:49;2.00;99.90
13472;DHT22;6808;49.444;11.034;2022-11-20T08:15:33;2.00;99.90
13472;DHT22;6808;49.444;11.034;2022-11-20T08:18:10;2.00;99.90
13472;DHT22;6808;49.444;11.034;2022-11-20T08:20:38;2.10;99.90
13472;DHT22;6808;49.444;11.034;2022-11-20T08:23:05;2.10;99.90
13472;DHT22;6808;49.444;11.034;2022-11-20T08:25:32;2.10;99.90
13472;DHT22;6808;49.444;11.034;2022-11-20T08:27:59;2.10;99.90
13472;DHT22;6808;49.444;11.034;2022-11-20T08:30:25;2.10;99.90
13472;DHT22;6808;49.444;11.034;2022-11-20T08:32:51;2.10;99.90
13472;DHT22;6808;49.444;11.034;2022-11-20T08:35:17;2.10;99.90
13472;DHT22;6808;49.444;11.034;2022-11-20T08:37:46;2.10;99.90
13472;DHT22;6808;49.444;11.034;2022-11-20T08:40:12;2.10;99.90
13472;DHT22;6808;49.444;11.034;2022-11-20T08:42:46;2.10;99.90
13472;DHT22;6808;49.444;11.034;2022-11-20T08:45:11;2.10;99.90
13472;DHT22;6808;49.444;11.034;2022-11-20T08:47:38;2.10;99.90
13472;DHT22;6808;49.444;11.034;2022-11-20T08:50:04;2.10;99.90
13472;DHT22;6808;49.444;11.034;2022-11-20T08:52:29;2.20;99.90
13472;DHT22;6808;49.444;11.034;2022-11-20T08:54:55;2.20;99.90
13472;DHT22;6808;49.444;11.034;2022-11-20T08:57:20;2.20;99.90
13472;DHT22;6808;49.444;11.034;2022-11-20T08:59:46;2.20;99.90
13472;DHT22;6808;49.444;11.034;2022-11-20T09:02:12;2.20;99.90
13472;DHT22;6808;49.444;11.034;2022-11-20T09:04:37;2.20;99.90
13472;DHT22;6808;49.444;11.034;2022-11-20T09:07:03;2.20;99.90
13472;DHT22;6808;49.444;11.034;2022-11-20T09:09:29;2.20;99.90
13472;DHT22;6808;49.444;11.034;2022-11-20T09:11:54;2.30;99.90
13472;DHT22;6808;49.444;11.034;2022-11-20T09:14:20;2.30;99.90
13472;DHT22;6808;49.444;11.034;2022-11-20T09:16:46;2.30;99.90
13472;DHT22;6808;49.444;11.034;2022-11-20T09:19:12;2.30;99.90
13472;DHT22;6808;49.444;11.034;2022-11-20T09:21:38;2.20;99.90
13472;DHT22;6808;49.444;11.034;2022-11-20T09:24:04;2.30;99.90
13472;DHT22;6808;49.444;11.034;2022-11-20T09:26:30;2.30;99.90
13472;DHT22;6808;49.444;11.034;2022-11-20T09:28:55;2.20;99.90
13472;DHT22;6808;49.444;11.034;2022-11-20T09:31:25;2.30;99.90
13472;DHT22;6808;49.444;11.034;2022-11-20T09:33:51;2.30;99.90
13472;DHT22;6808;49.444;11.034;2022-11-20T09:36:17;2.30;99.90
13472;DHT22;6808;49.444;11.034;2022-11-20T09:38:44;2.30;99.90
13472;DHT22;6808;49.444;11.034;2022-11-20T09:41:42;2.30;99.90
13472;DHT22;6808;49.444;11.034;2022-11-20T09:46:53;2.40;99.90
13472;DHT22;6808;49.444;11.034;2022-11-20T09:55:09;2.40;99.90
13472;DHT22;6808;49.444;11.034;2022-11-20T09:57:38;2.40;99.90
13472;DHT22;6808;49.444;11.034;2022-11-20T10:00:10;2.50;99.90
13472;DHT22;6808;49.444;11.034;2022-11-20T10:03:00;2.50;99.90
13472;DHT22;6808;49.444;11.034;2022-11-20T10:05:46;2.50;99.90
13472;DHT22;6808;49.444;11.034;2022-11-20T10:08:22;2.50;99.90
13472;DHT22;6808;49.444;11.034;2022-11-20T10:11:15;2.50;99.90
13472;DHT22;6808;49.444;11.034;2022-11-20T10:30:01;2.70;99.90
13472;DHT22;6808;49.444;11.034;2022-11-20T10:32:33;2.70;99.90
13472;DHT22;6808;49.444;11.034;2022-11-20T10:37:49;2.80;99.90
13472;DHT22;6808;49.444;11.034;2022-11-20T10:42:51;2.80;99.90
13472;DHT22;6808;49.444;11.034;2022-11-20T10:50:30;2.80;99.90
13472;DHT22;6808;49.444;11.034;2022-11-20T10:53:14;2.80;99.90
13472;DHT22;6808;49.444;11.034;2022-11-20T10:55:45;2.90;99.90
13472;DHT22;6808;49.444;11.034;2022-11-20T10:58:13;2.90;99.90
13472;DHT22;6808;49.444;11.034;2022-11-20T11:00:39;2.90;99.90
13472;DHT22;6808;49.444;11.034;2022-11-20T11:03:24;3.00;99.90
13472;DHT22;6808;49.444;11.034;2022-11-20T11:05:55;3.00;99.90
13472;DHT22;6808;49.444;11.034;2022-11-20T11:08:22;3.00;99.90
13472;DHT22;6808;49.444;11.034;2022-11-20T11:11:00;3.00;99.90
13472;DHT22;6808;49.444;11.034;2022-11-20T11:13:30;3.10;99.90
13472;DHT22;6808;49.444;11.034;2022-11-20T11:15:57;3.10;99.90
13472;DHT22;6808;49.444;11.034;2022-11-20T11:18:30;3.10;99.90
13472;DHT22;6808;49.444;11.034;2022-11-20T11:20:59;3.10;99.90
13472;DHT22;6808;49.444;11.034;2022-11-20T11:23:36;3.10;99.90
13472;DHT22;6808;49.444;11.034;2022-11-20T11:26:06;3.20;99.90
13472;DHT22;6808;49.444;11.034;2022-11-20T11:28:33;3.20;99.90
13472;DHT22;6808;49.444;11.034;2022-11-20T11:30:59;3.10;99.90
13472;DHT22;6808;49.444;11.034;2022-11-20T11:33:29;3.00;99.90
13472;DHT22;6808;49.444;11.034;2022-11-20T11:35:58;3.00;99.90
13472;DHT22;6808;49.444;11.034;2022-11-20T11:38:35;3.80;99.90
13472;DHT22;6808;49.444;11.034;2022-11-20T11:41:02;2.90;99.90
13472;DHT22;6808;49.444;11.034;2022-11-20T11:43:31;2.90;99.90
13472;DHT22;6808;49.444;11.034;2022-11-20T11:46:34;2.90;99.90
13472;DHT22;6808;49.444;11.034;2022-11-20T11:57:40;3.00;99.90
13472;DHT22;6808;49.444;11.034;2022-11-20T12:00:21;2.90;99.90
13472;DHT22;6808;49.444;11.034;2022-11-20T12:02:56;2.90;99.90
13472;DHT22;6808;49.444;11.034;2022-11-20T12:08:16;3.00;99.90
13472;DHT22;6808;49.444;11.034;2022-11-20T12:15:58;3.00;99.90
13472;DHT22;6808;49.444;11.034;2022-11-20T12:18:24;3.00;99.90
13472;DHT22;6808;49.444;11.034;2022-11-20T12:26:44;3.00;99.90
13472;DHT22;6808;49.444;11.034;2022-11-20T12:29:14;3.00;99.90
13472;DHT22;6808;49.444;11.034;2022-11-20T12:35:06;2.20;99.90
13472;DHT22;6808;49.444;11.034;2022-11-20T12:37:52;3.00;99.90
13472;DHT22;6808;49.444;11.034;2022-11-20T12:43:22;3.10;99.90
13472;DHT22;6808;49.444;11.034;2022-11-20T12:46:31;3.10;99.90
13472;DHT22;6808;49.444;11.034;2022-11-20T13:00:20;3.20;99.90
13472;DHT22;6808;49.444;11.034;2022-11-20T13:03:23;3.20;99.90
13472;DHT22;6808;49.444;11.034;2022-11-20T13:06:04;3.20;99.90
13472;DHT22;6808;49.444;11.034;2022-11-20T13:08:36;3.20;99.90
13472;DHT22;6808;49.444;11.034;2022-11-20T13:16:48;3.20;99.90
13472;DHT22;6808;49.444;11.034;2022-11-20T13:19:16;3.20;99.90
13472;DHT22;6808;49.444;11.034;2022-11-20T13:21:45;3.20;99.90
13472;DHT22;6808;49.444;11.034;2022-11-20T13:29:35;3.20;99.90
13472;DHT22;6808;49.444;11.034;2022-11-20T13:32:15;3.20;99.90
13472;DHT22;6808;49.444;11.034;2022-11-20T13:34:56;3.20;99.90
13472;DHT22;6808;49.444;11.034;2022-11-20T13:37:35;3.20;99.90
13472;DHT22;6808;49.444;11.034;2022-11-20T13:42:44;3.20;99.90
13472;DHT22;6808;49.444;11.034;2022-11-20T13:45:22;3.20;99.90
13472;DHT22;6808;49.444;11.034;2022-11-20T13:47:52;3.20;99.90
13472;DHT22;6808;49.444;11.034;2022-11-20T13:50:18;3.20;99.90
13472;DHT22;6808;49.444;11.034;2022-11-20T13:52:58;3.20;99.90
13472;DHT22;6808;49.444;11.034;2022-11-20T13:55:40;3.20;99.90
13472;DHT22;6808;49.444;11.034;2022-11-20T14:01:17;3.20;99.90
13472;DHT22;6808;49.444;11.034;2022-11-20T14:03:44;3.20;99.90
13472;DHT22;6808;49.444;11.034;2022-11-20T14:06:27;3.20;99.90
13472;DHT22;6808;49.444;11.034;2022-11-20T14:08:54;3.20;99.90
13472;DHT22;6808;49.444;11.034;2022-11-20T14:11:25;3.20;99.90
13472;DHT22;6808;49.444;11.034;2022-11-20T14:13:59;3.20;99.90
13472;DHT22;6808;49.444;11.034;2022-11-20T14:16:27;3.20;99.90
13472;DHT22;6808;49.444;11.034;2022-11-20T14:18:54;3.20;99.90
13472;DHT22;6808;49.444;11.034;2022-11-20T14:21:28;3.20;99.90
13472;DHT22;6808;49.444;11.034;2022-11-20T14:24:11;3.20;99.90
13472;DHT22;6808;49.444;11.034;2022-11-20T14:26:38;3.20;99.90
13472;DHT22;6808;49.444;11.034;2022-11-20T14:29:18;3.20;99.90
13472;DHT22;6808;49.444;11.034;2022-11-20T14:31:45;3.30;99.90
13472;DHT22;6808;49.444;11.034;2022-11-20T14:34:18;3.30;99.90
13472;DHT22;6808;49.444;11.034;2022-11-20T14:36:45;3.30;99.90
13472;DHT22;6808;49.444;11.034;2022-11-20T14:39:12;3.30;99.90
13472;DHT22;6808;49.444;11.034;2022-11-20T14:41:54;3.30;99.90
13472;DHT22;6808;49.444;11.034;2022-11-20T14:44:40;3.30;99.90
13472;DHT22;6808;49.444;11.034;2022-11-20T14:47:06;3.30;99.90
13472;DHT22;6808;49.444;11.034;2022-11-20T14:49:32;3.30;99.90
13472;DHT22;6808;49.444;11.034;2022-11-20T14:52:00;3.20;99.90
13472;DHT22;6808;49.444;11.034;2022-11-20T14:54:27;3.30;99.90
13472;DHT22;6808;49.444;11.034;2022-11-20T14:56:59;3.30;99.90
13472;DHT22;6808;49.444;11.034;2022-11-20T14:59:30;3.30;99.90
13472;DHT22;6808;49.444;11.034;2022-11-20T15:01:58;3.30;99.90
13472;DHT22;6808;49.444;11.034;2022-11-20T15:04:24;3.20;99.90
13472;DHT22;6808;49.444;11.034;2022-11-20T15:06:55;3.20;99.90
13472;DHT22;6808;49.444;11.034;2022-11-20T15:09:22;3.30;99.90
13472;DHT22;6808;49.444;11.034;2022-11-20T15:11:59;3.30;99.90
13472;DHT22;6808;49.444;11.034;2022-11-20T15:14:27;3.30;99.90
13472;DHT22;6808;49.444;11.034;2022-11-20T15:16:53;3.30;99.90
13472;DHT22;6808;49.444;11.034;2022-11-20T15:19:24;3.30;99.90
13472;DHT22;6808;49.444;11.034;2022-11-20T15:21:50;3.30;99.90
13472;DHT22;6808;49.444;11.034;2022-11-20T15:24:16;3.30;99.90
13472;DHT22;6808;49.444;11.034;2022-11-20T15:26:42;3.30;99.90
13472;DHT22;6808;49.444;11.034;2022-11-20T15:29:10;3.30;99.90
13472;DHT22;6808;49.444;11.034;2022-11-20T15:31:37;3.30;99.90
13472;DHT22;6808;49.444;11.034;2022-11-20T15:34:10;3.30;99.90
13472;DHT22;6808;49.444;11.034;2022-11-20T15:36:38;3.30;99.90
13472;DHT22;6808;49.444;11.034;2022-11-20T15:39:03;3.30;99.90
13472;DHT22;6808;49.444;11.034;2022-11-20T15:41:29;3.40;99.90
13472;DHT22;6808;49.444;11.034;2022-11-20T15:43:55;3.40;99.90
13472;DHT22;6808;49.444;11.034;2022-11-20T15:46:26;3.40;99.90
13472;DHT22;6808;49.444;11.034;2022-11-20T15:48:56;3.40;99.90
13472;DHT22;6808;49.444;11.034;2022-11-20T15:51:34;3.40;99.90
13472;DHT22;6808;49.444;11.034;2022-11-20T15:54:00;3.40;99.90
13472;DHT22;6808;49.444;11.034;2022-11-20T15:56:27;3.40;99.90
13472;DHT22;6808;49.444;11.034;2022-11-20T15:58:53;3.40;99.90
13472;DHT22;6808;49.444;11.034;2022-11-20T16:01:21;3.40;99.90
13472;DHT22;6808;49.444;11.034;2022-11-20T16:03:47;3.40;99.90
13472;DHT22;6808;49.444;11.034;2022-11-20T16:06:13;3.40;99.90
13472;DHT22;6808;49.444;11.034;2022-11-20T16:08:38;3.40;99.90
13472;DHT22;6808;49.444;11.034;2022-11-20T16:11:04;3.40;99.90
13472;DHT22;6808;49.444;11.034;2022-11-20T16:13:31;3.40;99.90
13472;DHT22;6808;49.444;11.034;2022-11-20T16:16:23;3.40;99.90
13472;DHT22;6808;49.444;11.034;2022-11-20T16:18:49;3.40;99.90
13472;DHT22;6808;49.444;11.034;2022-11-20T16:21:15;3.40;99.90
13472;DHT22;6808;49.444;11.034;2022-11-20T16:23:41;3.50;99.90
13472;DHT22;6808;49.444;11.034;2022-11-20T16:26:15;3.50;99.90
13472;DHT22;6808;49.444;11.034;2022-11-20T16:28:42;3.50;99.90
13472;DHT22;6808;49.444;11.034;2022-11-20T16:31:12;3.50;99.90
13472;DHT22;6808;49.444;11.034;2022-11-20T16:33:39;3.50;99.90
13472;DHT22;6808;49.444;11.034;2022-11-20T16:36:12;4.10;99.90
13472;DHT22;6808;49.444;11.034;2022-11-20T16:38:38;3.50;99.90
13472;DHT22;6808;49.444;11.034;2022-11-20T16:41:04;3.50;99.90
13472;DHT22;6808;49.444;11.034;2022-11-20T16:43:29;3.40;99.90
13472;DHT22;6808;49.444;11.034;2022-11-20T16:45:55;3.40;99.90
13472;DHT22;6808;49.444;11.034;2022-11-20T16:48:21;3.40;99.90
13472;DHT22;6808;49.444;11.034;2022-11-20T16:50:51;3.40;99.90
13472;DHT22;6808;49.444;11.034;2022-11-20T16:53:18;3.40;99.90
13472;DHT22;6808;49.444;11.034;2022-11-20T16:55:44;3.40;99.90
13472;DHT22;6808;49.444;11.034;2022-11-20T16:58:09;3.40;99.90
13472;DHT22;6808;49.444;11.034;2022-11-20T17:00:37;3.40;99.90
13472;DHT22;6808;49.444;11.034;2022-11-20T17:03:04;3.50;99.90
13472;DHT22;6808;49.444;11.034;2022-11-20T17:05:30;3.50;99.90
13472;DHT22;6808;49.444;11.034;2022-11-20T17:07:55;3.50;99.90
13472;DHT22;6808;49.444;11.034;2022-11-20T17:10:21;3.40;99.90
13472;DHT22;6808;49.444;11.034;2022-11-20T17:12:47;3.40;99.90
13472;DHT22;6808;49.444;11.034;2022-11-20T17:15:12;3.40;99.90
13472;DHT22;6808;49.444;11.034;2022-11-20T17:17:38;3.40;99.90
13472;DHT22;6808;49.444;11.034;2022-11-20T17:20:04;3.40;99.90
13472;DHT22;6808;49.444;11.034;2022-11-20T17:22:30;3.40;99.90
13472;DHT22;6808;49.444;11.034;2022-11-20T17:24:56;3.50;99.90
13472;DHT22;6808;49.444;11.034;2022-11-20T17:27:22;3.50;99.90
13472;DHT22;6808;49.444;11.034;2022-11-20T17:29:47;3.50;99.90
13472;DHT22;6808;49.444;11.034;2022-11-20T17:32:13;3.60;99.90
13472;DHT22;6808;49.444;11.034;2022-11-20T17:34:39;3.60;99.90